createdAt,value
2023-10-13T00:02:02.067Z,100244.06
2023-10-13T00:04:30.238Z,100244.53
2023-10-13T00:06:57.138Z,100241.91
2023-10-13T00:09:27.407Z,100249.09
2023-10-13T00:11:53.836Z,100243.19
2023-10-13T00:14:20.583Z,100241.81
2023-10-13T00:16:47.073Z,100239.59
2023-10-13T00:19:13.531Z,100234.59
2023-10-13T00:21:40.188Z,100231.28
2023-10-13T00:24:07.197Z,100228.31
2023-10-13T00:26:34.005Z,100223.28
2023-10-13T00:29:01.762Z,100226.03
2023-10-13T00:31:28.534Z,100225.13
2023-10-13T00:33:54.942Z,100218.38
2023-10-13T00:36:21.327Z,100223.75
2023-10-13T00:38:47.731Z,100221.00
2023-10-13T00:41:14.112Z,100222.38
2023-10-13T00:43:48.390Z,100215.28
2023-10-13T00:46:14.959Z,100214.38
2023-10-13T00:48:43.656Z,100205.72
2023-10-13T00:51:13.062Z,100213.47
2023-10-13T00:53:41.397Z,100214.16
2023-10-13T00:56:09.090Z,100216.53
2023-10-13T00:58:35.810Z,100216.31
2023-10-13T01:01:02.829Z,100214.94
2023-10-13T01:03:29.226Z,100205.72
2023-10-13T01:05:57.807Z,100211.63
2023-10-13T01:08:34.437Z,100205.59
2023-10-13T01:11:01.296Z,100204.91
2023-10-13T01:13:27.731Z,100197.97
2023-10-13T01:15:54.149Z,100199.19
2023-10-13T01:18:20.556Z,100194.06
2023-10-13T01:20:47.007Z,100185.75
2023-10-13T01:23:14.212Z,100188.34
2023-10-13T01:25:40.588Z,100185.59
2023-10-13T01:28:06.998Z,100177.97
2023-10-13T01:30:33.389Z,100174.44
2023-10-13T01:32:59.806Z,100168.03
2023-10-13T01:35:26.260Z,100176.13
2023-10-13T01:37:52.995Z,100170.28
2023-10-13T01:40:19.455Z,100165.06
2023-10-13T01:42:47.438Z,100173.72
2023-10-13T01:45:13.871Z,100168.81
2023-10-13T01:47:40.343Z,100163.91
2023-10-13T01:50:07.910Z,100162.66
2023-10-13T01:52:34.312Z,100161.88
2023-10-13T01:55:00.675Z,100160.03
2023-10-13T01:57:27.043Z,100147.69
2023-10-13T01:59:53.396Z,100139.91
2023-10-13T02:02:19.810Z,100149.06
2023-10-13T02:04:46.287Z,100145.97
2023-10-13T02:07:12.747Z,100139.81
2023-10-13T02:09:39.134Z,100153.66
2023-10-13T02:12:05.701Z,100142.56
2023-10-13T02:14:32.042Z,100141.53
2023-10-13T02:16:58.423Z,100139.94
2023-10-13T02:19:24.896Z,100140.06
2023-10-13T02:21:51.254Z,100135.84
2023-10-13T02:24:17.613Z,100126.69
2023-10-13T02:26:43.999Z,100129.78
2023-10-13T02:29:10.376Z,100117.91
2023-10-13T02:31:38.027Z,100122.34
2023-10-13T02:34:05.302Z,100124.41
2023-10-13T02:36:31.685Z,100128.88
2023-10-13T02:38:58.038Z,100117.22
2023-10-13T02:41:24.373Z,100118.59
2023-10-13T02:43:50.757Z,100105.69
2023-10-13T02:46:17.227Z,100102.72
2023-10-13T02:48:44.183Z,100104.28
2023-10-13T02:51:10.520Z,100096.31
2023-10-13T02:53:36.888Z,100099.06
2023-10-13T02:56:03.322Z,100095.66
2023-10-13T02:58:29.763Z,100095.19
2023-10-13T03:00:56.177Z,100089.25
2023-10-13T03:03:22.610Z,100086.41
2023-10-13T03:05:49.028Z,100081.47
2023-10-13T03:08:15.383Z,100077.50
2023-10-13T03:10:41.785Z,100076.81
2023-10-13T03:13:08.243Z,100069.34
2023-10-13T03:15:35.017Z,100073.66
2023-10-13T03:18:01.538Z,100061.00
2023-10-13T03:20:27.977Z,100072.97
2023-10-13T03:22:54.405Z,100065.59
2023-10-13T03:25:20.853Z,100063.53
2023-10-13T03:27:47.231Z,100059.75
2023-10-13T03:30:13.771Z,100056.53
2023-10-13T03:32:40.173Z,100054.41
2023-10-13T03:35:07.190Z,100055.19
2023-10-13T03:37:33.588Z,100057.50
2023-10-13T03:40:00.021Z,100050.25
2023-10-13T03:42:26.368Z,100047.19
2023-10-13T03:44:52.751Z,100044.50
2023-10-13T03:47:19.235Z,100041.63
2023-10-13T03:49:46.527Z,100035.16
2023-10-13T03:52:12.956Z,100027.78
2023-10-13T03:54:39.345Z,100025.97
2023-10-13T03:57:05.702Z,100025.50
2023-10-13T03:59:32.061Z,100021.03
2023-10-13T04:01:58.532Z,100022.84
2023-10-13T04:04:25.664Z,100024.31
2023-10-13T04:06:52.111Z,100020.19
2023-10-13T04:09:20.381Z,100007.81
2023-10-13T04:11:46.817Z,100010.25
2023-10-13T04:14:13.191Z,100007.41
2023-10-13T04:16:39.599Z,100007.06
2023-10-13T04:19:06.210Z,100002.81
2023-10-13T04:21:32.561Z,99993.81
2023-10-13T04:23:58.924Z,99990.88
2023-10-13T04:26:25.334Z,99988.84
2023-10-13T04:28:51.701Z,99981.19
2023-10-13T04:31:18.144Z,99978.44
2023-10-13T04:33:44.555Z,99975.47
2023-10-13T04:36:13.115Z,99973.03
2023-10-13T04:38:39.444Z,99979.22
2023-10-13T04:41:05.816Z,99977.25
2023-10-13T04:43:32.203Z,99968.34
2023-10-13T04:46:00.870Z,99967.47
2023-10-13T04:48:27.343Z,99959.41
2023-10-13T04:50:53.778Z,99956.91
2023-10-13T04:53:20.151Z,99955.34
2023-10-13T04:55:50.223Z,99953.84
2023-10-13T04:58:16.601Z,99951.56
2023-10-13T05:00:42.964Z,99937.72
2023-10-13T05:03:09.355Z,99942.78
2023-10-13T05:05:35.748Z,99930.28
2023-10-13T05:08:02.132Z,99920.75
2023-10-13T05:10:29.407Z,99921.19
2023-10-13T05:12:55.793Z,99922.34
2023-10-13T05:15:22.149Z,99919.63
2023-10-13T05:17:48.649Z,99923.94
2023-10-13T05:20:15.116Z,99921.75
2023-10-13T05:22:41.558Z,99918.84
2023-10-13T05:25:08.017Z,99917.66
2023-10-13T05:27:34.394Z,99908.19
2023-10-13T05:30:00.747Z,99910.06
2023-10-13T05:32:27.430Z,99904.81
2023-10-13T05:34:53.934Z,99910.16
2023-10-13T05:37:20.377Z,99890.88
2023-10-13T05:39:46.802Z,99883.81
2023-10-13T05:42:13.174Z,99889.16
2023-10-13T05:44:39.567Z,99871.66
2023-10-13T05:47:06.202Z,99872.09
2023-10-13T05:49:32.696Z,99872.72
2023-10-13T05:51:59.141Z,99861.75
2023-10-13T05:54:25.654Z,99863.47
2023-10-13T05:56:53.207Z,99859.66
2023-10-13T05:59:19.708Z,99860.97
2023-10-13T06:01:46.368Z,99868.13
2023-10-13T06:04:12.851Z,99868.94
2023-10-13T06:06:39.286Z,99860.81
2023-10-13T06:09:05.617Z,99855.56
2023-10-13T06:11:31.987Z,99864.97
2023-10-13T06:13:58.347Z,99859.84
2023-10-13T06:16:24.918Z,99857.72
2023-10-13T06:18:51.387Z,99849.94
2023-10-13T06:21:17.747Z,99847.63
2023-10-13T06:23:44.115Z,99846.75
2023-10-13T06:26:10.471Z,99825.97
2023-10-13T06:28:36.857Z,99836.75
2023-10-13T06:31:05.950Z,99841.53
2023-10-13T06:33:35.578Z,99838.34
2023-10-13T06:36:03.278Z,99837.81
2023-10-13T06:38:30.538Z,99825.97
2023-10-13T06:40:57.088Z,99813.78
2023-10-13T06:43:24.445Z,99820.41
2023-10-13T06:45:52.556Z,99818.25
2023-10-13T06:48:18.963Z,99816.16
2023-10-13T06:50:49.482Z,99808.28
2023-10-13T06:53:15.835Z,99821.53
2023-10-13T06:55:42.220Z,99815.00
2023-10-13T06:58:08.639Z,99817.72
2023-10-13T07:00:34.972Z,99806.25
2023-10-13T07:03:02.269Z,99805.03
2023-10-13T07:05:28.893Z,99798.13
2023-10-13T07:07:55.365Z,99811.19
2023-10-13T07:10:21.796Z,99802.09
2023-10-13T07:12:48.185Z,99799.00
2023-10-13T07:15:14.668Z,99802.44
2023-10-13T07:17:41.152Z,99800.78
2023-10-13T07:20:08.643Z,99789.00
2023-10-13T07:22:35.034Z,99781.78
2023-10-13T07:25:01.428Z,99808.03
2023-10-13T07:27:27.817Z,99804.84
2023-10-13T07:29:56.590Z,99792.09
2023-10-13T07:32:26.049Z,99790.34
2023-10-13T07:34:56.290Z,99798.38
2023-10-13T07:37:23.957Z,99818.06
2023-10-13T07:39:50.359Z,99798.34
2023-10-13T07:42:16.718Z,99796.03
2023-10-13T07:44:43.093Z,99795.56
2023-10-13T07:47:09.625Z,99805.03
2023-10-13T07:49:39.860Z,99810.13
2023-10-13T07:52:09.584Z,99811.16
2023-10-13T07:54:35.962Z,99808.91
2023-10-13T07:57:02.312Z,99798.19
2023-10-13T07:59:28.649Z,99792.69
2023-10-13T08:01:55.073Z,99795.22
2023-10-13T08:04:21.505Z,99803.97
2023-10-13T08:06:47.857Z,99801.91
2023-10-13T08:09:14.388Z,99807.41
2023-10-13T08:11:41.132Z,99810.88
2023-10-13T08:14:12.977Z,99802.50
2023-10-13T08:16:49.214Z,99801.06
2023-10-13T08:19:17.629Z,99790.94
2023-10-13T08:21:45.477Z,99806.59
2023-10-13T08:24:11.839Z,99794.19
2023-10-13T08:26:38.228Z,99797.31
2023-10-13T08:29:05.518Z,99789.59
2023-10-13T08:31:32.337Z,99786.56
2023-10-13T08:33:58.775Z,99792.44
2023-10-13T08:36:25.162Z,99793.72
2023-10-13T08:38:51.635Z,99792.84
2023-10-13T08:41:18.065Z,99791.84
2023-10-13T08:43:44.937Z,99787.50
2023-10-13T08:46:12.725Z,99783.69
2023-10-13T08:48:40.617Z,99778.28
2023-10-13T08:51:07.088Z,99767.66
2023-10-13T08:53:33.728Z,99764.06
2023-10-13T08:56:10.421Z,99753.63
2023-10-13T08:58:38.660Z,99751.66
2023-10-13T09:01:05.048Z,99751.44
2023-10-13T09:03:31.470Z,99746.94
2023-10-13T09:05:57.890Z,99741.22
2023-10-13T09:08:27.969Z,99725.16
2023-10-13T09:10:59.273Z,99724.59
2023-10-13T09:13:35.567Z,99707.91
2023-10-13T09:16:10.381Z,99712.63
2023-10-13T09:18:36.675Z,99699.25
2023-10-13T09:21:03.033Z,99691.72
2023-10-13T09:23:29.370Z,99696.63
2023-10-13T09:26:06.386Z,99681.63
2023-10-13T09:28:32.882Z,99674.47
2023-10-13T09:30:59.351Z,99671.66
2023-10-13T09:33:28.059Z,99668.56
2023-10-13T09:35:54.484Z,99670.09
2023-10-13T09:38:21.268Z,99653.06
2023-10-13T09:40:47.907Z,99653.84
2023-10-13T09:43:14.364Z,99635.81
2023-10-13T09:45:40.856Z,99636.56
2023-10-13T09:48:11.417Z,99638.53
2023-10-13T09:50:39.914Z,99637.31
2023-10-13T09:53:06.690Z,99641.97
2023-10-13T09:55:37.667Z,99632.94
2023-10-13T09:58:11.734Z,99639.63
2023-10-13T10:00:44.611Z,99622.31
2023-10-13T10:03:11.254Z,99619.44
2023-10-13T10:05:37.757Z,99617.50
2023-10-13T10:08:04.495Z,99635.66
2023-10-13T10:11:01.556Z,99638.75
2023-10-13T10:13:45.193Z,99624.63
2023-10-13T10:16:16.377Z,99635.34
2023-10-13T10:18:43.081Z,99613.81
2023-10-13T10:21:09.460Z,99617.00
2023-10-13T10:23:35.878Z,99613.84
2023-10-13T10:26:11.999Z,99615.94
2023-10-13T10:28:39.708Z,99609.72
2023-10-13T10:31:07.358Z,99618.84
2023-10-13T10:33:33.838Z,99614.09
2023-10-13T10:36:02.010Z,99597.91
2023-10-13T10:38:28.410Z,99593.63
2023-10-13T10:41:07.139Z,99595.31
2023-10-13T10:43:38.505Z,99583.88
2023-10-13T10:46:05.203Z,99577.25
2023-10-13T10:48:32.936Z,99576.44
2023-10-13T10:50:59.629Z,99571.72
2023-10-13T10:53:26.177Z,99568.53
2023-10-13T10:55:52.587Z,99562.22
2023-10-13T10:58:19.015Z,99556.31
2023-10-13T11:00:45.431Z,99552.78
2023-10-13T11:03:11.859Z,99547.25
2023-10-13T11:05:46.208Z,99552.75
2023-10-13T11:08:25.272Z,99559.88
2023-10-13T11:10:51.693Z,99559.09
2023-10-13T11:13:18.125Z,99542.50
2023-10-13T11:15:45.434Z,99529.44
2023-10-13T11:18:12.254Z,99531.81
2023-10-13T11:20:43.160Z,99528.25
2023-10-13T11:23:13.453Z,99514.34
2023-10-13T11:25:40.144Z,99518.72
2023-10-13T11:28:17.647Z,99511.25
2023-10-13T11:30:45.161Z,99510.41
2023-10-13T11:33:12.280Z,99510.38
2023-10-13T11:35:40.180Z,99504.47
2023-10-13T11:38:06.585Z,99499.63
2023-10-13T11:40:33.200Z,99493.22
2023-10-13T11:45:27.284Z,99489.09
2023-10-13T11:47:53.832Z,99484.94
2023-10-13T11:50:20.236Z,99474.66
2023-10-13T11:52:46.610Z,99480.16
2023-10-13T11:55:13.018Z,99473.06
2023-10-13T11:57:39.372Z,99477.72
2023-10-13T12:00:06.463Z,99475.56
2023-10-13T12:02:33.002Z,99464.59
2023-10-13T12:04:59.518Z,99468.66
2023-10-13T12:07:26.307Z,99456.81
2023-10-13T12:09:53.174Z,99448.47
2023-10-13T12:12:19.733Z,99444.66
2023-10-13T12:14:46.116Z,99451.50
2023-10-13T12:17:12.550Z,99437.56
2023-10-13T12:19:38.936Z,99439.25
2023-10-13T12:22:05.506Z,99428.81
2023-10-13T12:24:31.914Z,99424.38
2023-10-13T12:26:58.679Z,99423.84
2023-10-13T12:29:25.445Z,99413.44
2023-10-13T12:31:51.841Z,99421.50
2023-10-13T12:34:18.215Z,99423.69
2023-10-13T12:36:44.586Z,99410.91
2023-10-13T12:39:11.023Z,99410.56
2023-10-13T12:41:37.910Z,99412.97
2023-10-13T12:44:06.029Z,99402.44
2023-10-13T12:46:32.431Z,99406.41
2023-10-13T12:48:58.872Z,99400.69
2023-10-13T12:51:25.473Z,99396.19
2023-10-13T12:53:53.589Z,99395.53
2023-10-13T12:56:21.290Z,99388.25
2023-10-13T12:58:47.730Z,99385.22
2023-10-13T13:01:14.201Z,99390.13
2023-10-13T13:03:40.638Z,99371.22
2023-10-13T13:06:06.992Z,99375.69
2023-10-13T13:08:33.641Z,99374.88
2023-10-13T13:10:59.990Z,99375.91
2023-10-13T13:13:26.452Z,99377.38
2023-10-13T13:15:52.967Z,99375.25
2023-10-13T13:18:19.402Z,99367.47
2023-10-13T13:20:46.215Z,99365.16
2023-10-13T13:23:12.603Z,99355.88
2023-10-13T13:25:39.158Z,99361.69
2023-10-13T13:28:05.852Z,99350.44
2023-10-13T13:30:32.419Z,99341.88
2023-10-13T13:32:58.871Z,99352.94
2023-10-13T13:35:25.333Z,99341.91
2023-10-13T13:37:51.858Z,99334.13
2023-10-13T13:40:18.267Z,99331.00
2023-10-13T13:42:45.786Z,99333.28
2023-10-13T13:45:19.968Z,99320.34
2023-10-13T13:47:46.417Z,99318.97
2023-10-13T13:50:12.824Z,99323.84
2023-10-13T13:52:39.209Z,99316.88
2023-10-13T13:55:05.997Z,99308.47
2023-10-13T13:57:32.372Z,99311.84
2023-10-13T13:59:58.721Z,99314.19
2023-10-13T14:02:25.222Z,99318.53
2023-10-13T14:04:52.065Z,99311.72
2023-10-13T14:07:19.755Z,99313.16
2023-10-13T14:09:47.273Z,99314.97
2023-10-13T14:12:15.518Z,99318.34
2023-10-13T14:14:43.850Z,99316.72
2023-10-13T14:17:10.318Z,99317.97
2023-10-13T14:19:37.265Z,99310.03
2023-10-13T14:22:03.655Z,99323.41
2023-10-13T14:24:30.035Z,99314.81
2023-10-13T14:26:57.562Z,99312.84
2023-10-13T14:29:24.059Z,99308.06
2023-10-13T14:31:50.557Z,99316.16
2023-10-13T14:34:16.972Z,99319.25
2023-10-13T14:36:43.358Z,99304.63
2023-10-13T14:39:09.729Z,99305.78
2023-10-13T14:41:37.180Z,99307.84
2023-10-13T14:44:03.718Z,99310.31
2023-10-13T14:46:30.180Z,99295.75
2023-10-13T14:48:56.620Z,99307.44
2023-10-13T14:51:23.144Z,99307.13
2023-10-13T14:53:52.568Z,99295.25
2023-10-13T14:56:20.651Z,99319.19
2023-10-13T14:58:47.036Z,99318.34
2023-10-13T15:01:18.677Z,99296.97
2023-10-13T15:03:46.609Z,99300.09
2023-10-13T15:06:20.000Z,99300.69
2023-10-13T15:08:46.556Z,99305.03
2023-10-13T15:11:15.906Z,99294.81
2023-10-13T15:13:42.339Z,99301.63
2023-10-13T15:16:20.215Z,99295.31
2023-10-13T15:18:47.572Z,99310.34
2023-10-13T15:21:24.177Z,99304.41
2023-10-13T15:23:50.695Z,99298.09
2023-10-13T15:26:17.049Z,99296.91
2023-10-13T15:28:43.489Z,99296.81
2023-10-13T15:31:12.962Z,99310.75
2023-10-13T15:33:39.333Z,99304.91
2023-10-13T15:36:06.110Z,99301.00
2023-10-13T15:38:32.545Z,99308.19
2023-10-13T15:40:59.099Z,99295.94
2023-10-13T15:43:25.589Z,99291.31
2023-10-13T15:45:52.003Z,99299.16
2023-10-13T15:48:20.635Z,99298.38
2023-10-13T15:50:48.410Z,99290.50
2023-10-13T15:53:15.006Z,99284.25
2023-10-13T15:55:41.665Z,99289.78
2023-10-13T15:58:08.210Z,99292.09
2023-10-13T16:00:38.024Z,99293.34
2023-10-13T16:03:05.596Z,99286.69
2023-10-13T16:05:33.475Z,99286.69
2023-10-13T16:07:59.837Z,99286.69
2023-10-13T16:10:26.208Z,99282.78
2023-10-13T16:12:52.598Z,99277.25
2023-10-13T16:15:19.057Z,99283.94
2023-10-13T16:17:45.602Z,99288.31
2023-10-13T16:20:12.022Z,99298.63
2023-10-13T16:22:38.464Z,99297.81
2023-10-13T16:25:16.627Z,99293.09
2023-10-13T16:27:45.813Z,99291.50
2023-10-13T16:30:14.940Z,99307.31
2023-10-13T16:32:42.353Z,99307.31
2023-10-13T16:35:09.213Z,99308.91
2023-10-13T16:37:35.560Z,99312.06
2023-10-13T16:40:01.986Z,99307.34
2023-10-13T16:42:28.448Z,99306.56
2023-10-13T16:44:54.866Z,99312.44
2023-10-13T16:47:21.271Z,99307.34
2023-10-13T16:49:47.636Z,99305.78
2023-10-13T16:52:14.127Z,99302.63
2023-10-13T16:54:40.530Z,99294.72
2023-10-13T16:57:07.044Z,99302.63
2023-10-13T16:59:33.385Z,99288.44
2023-10-13T17:01:59.741Z,99292.38
2023-10-13T17:04:28.458Z,99291.94
2023-10-13T17:06:55.313Z,99294.72
2023-10-13T17:09:21.820Z,99304.22
2023-10-13T17:11:48.202Z,99296.72
2023-10-13T17:14:14.600Z,99301.84
2023-10-13T17:16:41.107Z,99305.81
2023-10-13T17:19:07.510Z,99301.06
2023-10-13T17:21:33.956Z,99306.59
2023-10-13T17:24:00.662Z,99303.06
2023-10-13T17:26:27.059Z,99301.47
2023-10-13T17:28:53.894Z,99301.50
2023-10-13T17:31:20.283Z,99299.50
2023-10-13T17:33:47.534Z,99292.41
2023-10-13T17:36:13.962Z,99289.22
2023-10-13T17:38:40.398Z,99300.31
2023-10-13T17:41:11.871Z,99304.25
2023-10-13T17:43:38.507Z,99295.56
2023-10-13T17:46:11.593Z,99299.53
2023-10-13T17:48:39.291Z,99293.63
2023-10-13T17:51:06.959Z,99299.50
2023-10-13T17:53:33.681Z,99290.00
2023-10-13T17:56:03.757Z,99285.25
2023-10-13T17:58:30.198Z,99297.03
2023-10-13T18:00:56.643Z,99270.28
2023-10-13T18:03:23.134Z,99250.53
2023-10-13T18:05:49.566Z,99258.31
2023-10-13T18:08:15.909Z,99246.88
2023-10-13T18:10:42.271Z,99233.75
2023-10-13T18:13:08.641Z,99239.22
2023-10-13T18:15:35.019Z,99235.72
2023-10-13T18:18:01.461Z,99235.31
2023-10-13T18:20:27.905Z,99234.44
2023-10-13T18:22:55.576Z,99231.28
2023-10-13T18:25:22.273Z,99224.13
2023-10-13T18:27:48.675Z,99211.34
2023-10-13T18:30:15.252Z,99219.91
2023-10-13T18:32:42.674Z,99235.97
2023-10-13T18:35:10.733Z,99234.75
2023-10-13T18:37:37.134Z,99230.41
2023-10-13T18:40:04.723Z,99237.97
2023-10-13T18:42:31.102Z,99223.06
2023-10-13T18:44:57.476Z,99211.19
2023-10-13T18:47:23.843Z,99207.63
2023-10-13T18:49:50.207Z,99217.38
2023-10-13T18:52:16.550Z,99219.88
2023-10-13T18:54:42.953Z,99216.78
2023-10-13T18:57:09.365Z,99213.22
2023-10-13T18:59:35.776Z,99221.19
2023-10-13T19:02:02.267Z,99209.00
2023-10-13T19:04:28.677Z,99213.31
2023-10-13T19:06:55.074Z,99199.97
2023-10-13T19:09:21.565Z,99205.91
2023-10-13T19:11:48.042Z,99216.91
2023-10-13T19:14:14.405Z,99209.03
2023-10-13T19:16:41.764Z,99212.56
2023-10-13T19:19:08.579Z,99219.66
2023-10-13T19:21:35.065Z,99219.25
2023-10-13T19:24:01.445Z,99216.09
2023-10-13T19:26:29.178Z,99228.13
2023-10-13T19:28:57.933Z,99218.25
2023-10-13T19:31:29.000Z,99222.06
2023-10-13T19:33:58.592Z,99229.50
2023-10-13T19:36:25.110Z,99225.91
2023-10-13T19:38:53.175Z,99216.09
2023-10-13T19:41:21.756Z,99220.41
2023-10-13T19:43:49.376Z,99213.34
2023-10-13T19:46:16.866Z,99214.19
2023-10-13T19:48:43.905Z,99208.69
2023-10-13T19:51:11.183Z,99205.63
2023-10-13T19:53:42.182Z,99201.19
2023-10-13T19:56:15.710Z,99208.34
2023-10-13T19:58:42.125Z,99194.50
2023-10-13T20:01:11.350Z,99198.88
2023-10-13T20:03:38.259Z,99201.47
2023-10-13T20:06:04.736Z,99194.31
2023-10-13T20:08:31.138Z,99180.56
2023-10-13T20:10:57.512Z,99189.13
2023-10-13T20:13:23.864Z,99177.81
2023-10-13T20:15:50.332Z,99173.13
2023-10-13T20:18:16.701Z,99175.91
2023-10-13T20:20:44.167Z,99176.28
2023-10-13T20:23:14.458Z,99173.84
2023-10-13T20:25:44.065Z,99163.22
2023-10-13T20:28:10.687Z,99153.44
2023-10-13T20:30:37.251Z,99149.59
2023-10-13T20:33:04.498Z,99141.69
2023-10-13T20:35:30.923Z,99135.69
2023-10-13T20:37:57.368Z,99141.34
2023-10-13T20:40:23.817Z,99152.78
2023-10-13T20:42:51.713Z,99163.91
2023-10-13T20:45:20.288Z,99159.94
2023-10-13T20:47:46.661Z,99152.19
2023-10-13T20:50:13.121Z,99141.06
2023-10-13T20:52:39.478Z,99136.97
2023-10-13T20:55:06.248Z,99144.00
2023-10-13T20:57:32.701Z,99151.09
2023-10-13T21:00:00.074Z,99153.88
2023-10-13T21:02:26.591Z,99127.53
2023-10-13T21:04:53.309Z,99165.31
2023-10-13T21:07:19.885Z,99160.31
2023-10-13T21:09:46.315Z,99158.00
2023-10-13T21:12:12.740Z,99171.72
2023-10-13T21:14:39.148Z,99164.97
2023-10-13T21:17:05.960Z,99149.53
2023-10-13T21:19:32.407Z,99159.59
2023-10-13T21:21:58.803Z,99153.94
2023-10-13T21:24:25.350Z,99147.25
2023-10-13T21:26:51.726Z,99140.66
2023-10-13T21:29:18.061Z,99128.19
2023-10-13T21:31:44.488Z,99112.50
2023-10-13T21:34:11.039Z,99097.94
2023-10-13T21:36:37.490Z,99102.91
2023-10-13T21:39:04.566Z,99083.22
2023-10-13T21:41:31.431Z,99088.72
2023-10-13T21:43:59.822Z,99096.19
2023-10-13T21:46:26.983Z,99087.25
2023-10-13T21:48:54.431Z,99077.59
2023-10-13T21:51:22.603Z,99059.06
2023-10-13T21:53:49.239Z,99045.44
2023-10-13T21:56:17.498Z,99052.59
2023-10-13T21:58:44.306Z,99042.41
2023-10-13T22:01:11.172Z,99042.31
2023-10-13T22:03:37.743Z,99040.53
2023-10-13T22:06:04.254Z,99029.06
2023-10-13T22:08:30.712Z,99041.34
2023-10-13T22:10:57.080Z,99039.78
2023-10-13T22:13:23.501Z,99023.19
2023-10-13T22:15:49.884Z,99026.13
2023-10-13T22:18:16.289Z,99017.41
2023-10-13T22:20:42.645Z,99021.41
2023-10-13T22:23:09.083Z,99002.81
2023-10-13T22:25:35.465Z,99004.69
2023-10-13T22:28:01.896Z,98988.47
2023-10-13T22:30:28.328Z,98990.88
2023-10-13T22:32:54.713Z,98991.31
2023-10-13T22:35:21.146Z,98984.94
2023-10-13T22:37:47.968Z,98983.09
2023-10-13T22:40:14.514Z,98978.03
2023-10-13T22:42:41.144Z,98976.38
2023-10-13T22:45:08.252Z,98975.56
2023-10-13T22:47:34.612Z,98970.78
2023-10-13T22:50:00.956Z,98963.13
2023-10-13T22:52:27.319Z,98965.00
2023-10-13T22:54:53.716Z,98957.19
2023-10-13T22:57:20.118Z,98948.19
2023-10-13T22:59:46.459Z,98947.28
2023-10-13T23:02:12.821Z,98940.66
2023-10-13T23:04:39.208Z,98932.84
2023-10-13T23:07:05.730Z,98934.09
2023-10-13T23:09:32.168Z,98930.09
2023-10-13T23:11:58.885Z,98926.16
2023-10-13T23:14:25.243Z,98925.88
2023-10-13T23:16:51.741Z,98917.69
2023-10-13T23:19:18.270Z,98909.09
2023-10-13T23:21:44.670Z,98904.81
2023-10-13T23:24:11.377Z,98895.84
2023-10-13T23:26:38.066Z,98900.53
2023-10-13T23:29:04.507Z,98893.13
2023-10-13T23:31:31.183Z,98886.47
2023-10-13T23:33:57.632Z,98891.38
2023-10-13T23:36:24.119Z,98889.66
2023-10-13T23:38:50.480Z,98889.66
2023-10-13T23:41:16.820Z,98878.78
2023-10-13T23:43:44.271Z,98864.03
2023-10-13T23:46:11.909Z,98865.59
2023-10-13T23:48:39.368Z,98866.38
2023-10-13T23:51:05.915Z,98859.44
2023-10-13T23:53:34.633Z,98857.84
2023-10-13T23:56:09.221Z,98850.47
2023-10-13T23:58:40.295Z,98828.91
